Time;durP1;ratioP1;P1;durP2;ratioP2;P2;SDS_P1;SDS_P2;PMS_P1;PMS_P2;Temp;Humidity;BMP_temperature;BMP_pressure;BME280_temperature;BME280_humidity;BME280_pressure;Samples;Min_cycle;Max_cycle;Signal;HPM_P1;HPM_P2
2022/11/10 00:01:47;;;;;;;0.00;0.00;;;;;;;;;;4977333;28;20251;-75
2022/11/10 00:04:33;;;;;;;0.00;0.00;;;;;;;;;;4976276;28;20204;-76
2022/11/10 00:07:24;;;;;;;0.00;0.00;;;;;;;;;;4978528;28;20246;-76
2022/11/10 00:10:11;;;;;;;0.10;0.10;;;;;;;;;;4978463;28;20212;-76
2022/11/10 00:13:00;;;;;;;0.00;0.00;;;;;;;;;;4977531;28;20235;-75
2022/11/10 00:18:50;;;;;;;0.00;0.00;;;;;;;;;;4977219;28;20208;-76
2022/11/10 00:21:37;;;;;;;0.00;0.00;;;;;;;;;;4975140;28;20245;-76
2022/11/10 00:24:25;;;;;;;0.10;0.10;;;11.70;99.90;;;;;;4977565;28;20224;-76
2022/11/10 00:27:11;;;;;;;0.07;0.07;;;;;;;;;;4976876;28;20216;-76
2022/11/10 00:29:57;;;;;;;0.10;0.10;;;;;;;;;;4981220;28;20587;-76
2022/11/10 00:32:43;;;;;;;0.07;0.07;;;;;;;;;;4980131;28;20232;-76
2022/11/10 00:35:29;;;;;;;0.10;0.10;;;;;;;;;;4981081;28;20331;-76
2022/11/10 00:38:16;;;;;;;0.00;0.00;;;;;;;;;;4979910;28;20211;-75
2022/11/10 00:41:04;;;;;;;0.10;0.10;;;;;;;;;;4980114;28;20256;-75
2022/11/10 00:43:50;;;;;;;0.00;0.00;;;;;;;;;;4982754;28;20220;-75
2022/11/10 00:46:36;;;;;;;0.00;0.00;;;;;;;;;;4980322;28;20303;-75
2022/11/10 00:49:22;;;;;;;0.00;0.00;;;;;;;;;;4982091;28;20283;-75
2022/11/10 00:52:08;;;;;;;0.00;0.00;;;;;;;;;;4981564;28;20232;-75
2022/11/10 00:54:55;;;;;;;0.00;0.00;;;;;;;;;;4980843;28;20329;-75
2022/11/10 00:57:42;;;;;;;0.00;0.00;;;;;;;;;;4981892;28;20220;-76
2022/11/10 01:00:29;;;;;;;0.00;0.00;;;;;;;;;;4982327;28;20336;-76
2022/11/10 01:03:15;;;;;;;0.00;0.00;;;;;;;;;;4980818;28;20806;-76
2022/11/10 01:06:05;;;;;;;0.00;0.00;;;;;;;;;;4980059;28;20216;-76
2022/11/10 01:08:51;;;;;;;0.07;0.07;;;;;;;;;;4979669;28;20205;-78
2022/11/10 01:11:38;;;;;;;0.00;0.00;;;;;;;;;;4980304;28;20268;-78
2022/11/10 01:14:25;;;;;;;0.00;0.00;;;;;;;;;;4981139;28;20208;-78
2022/11/10 01:17:12;;;;;;;0.00;0.00;;;;;;;;;;4979839;28;20216;-78
2022/11/10 01:19:58;;;;;;;0.00;0.00;;;;;;;;;;4983420;28;20232;-78
2022/11/10 01:22:44;;;;;;;0.00;0.00;;;;;;;;;;4980211;28;20315;-77
2022/11/10 01:25:30;;;;;;;0.00;0.00;;;;;;;;;;4979769;28;20204;-77
2022/11/10 01:28:17;;;;;;;0.10;0.10;;;;;;;;;;4981402;28;20247;-79
2022/11/10 01:31:05;;;;;;;0.00;0.00;;;;;;;;;;4980501;28;20343;-79
2022/11/10 01:33:52;;;;;;;0.10;0.10;;;;;;;;;;4979273;28;20213;-75
2022/11/10 01:36:38;;;;;;;0.00;0.00;;;;;;;;;;4980980;28;20380;-76
2022/11/10 01:39:24;;;;;;;0.00;0.00;;;;;;;;;;4980552;28;20243;-75
2022/11/10 01:42:11;;;;;;;0.00;0.00;;;;;;;;;;4979141;28;20243;-75
2022/11/10 01:45:17;;;;;;;0.00;0.00;;;;;;;;;;4979815;28;20208;-75
2022/11/10 01:48:06;;;;;;;0.00;0.00;;;;;;;;;;4981357;28;20252;-76
2022/11/10 01:50:53;;;;;;;0.10;0.10;;;;;;;;;;4979918;28;20331;-76
2022/11/10 01:53:41;;;;;;;0.00;0.00;;;;;;;;;;4979414;28;20268;-76
2022/11/10 01:56:29;;;;;;;0.10;0.10;;;;;;;;;;4981639;28;20228;-75
2022/11/10 01:59:19;;;;;;;0.00;0.00;;;;;;;;;;4981268;28;20279;-75
2022/11/10 02:02:09;;;;;;;0.00;0.00;;;;;;;;;;4978188;28;20228;-76
2022/11/10 02:04:57;;;;;;;0.10;0.10;;;;;;;;;;4980690;28;20211;-76
2022/11/10 02:07:43;;;;;;;0.10;0.10;;;;;;;;;;4979710;28;20221;-75
2022/11/10 02:10:30;;;;;;;0.00;0.00;;;;;;;;;;4978907;28;20205;-76
2022/11/10 02:13:16;;;;;;;0.00;0.00;;;;;;;;;;4981141;28;20244;-75
2022/11/10 02:16:02;;;;;;;0.07;0.07;;;;;;;;;;4980636;28;20236;-75
2022/11/10 02:18:48;;;;;;;0.10;0.10;;;;;;;;;;4978432;28;20216;-76
2022/11/10 02:21:36;;;;;;;0.00;0.00;;;;;;;;;;4979559;28;20213;-75
2022/11/10 02:24:23;;;;;;;0.10;0.10;;;;;;;;;;4980428;28;20227;-76
2022/11/10 02:27:09;;;;;;;0.00;0.00;;;;;;;;;;4978976;28;20204;-75
2022/11/10 02:29:55;;;;;;;0.00;0.00;;;;;;;;;;4978873;28;20209;-76
2022/11/10 02:32:42;;;;;;;0.00;0.00;;;;;;;;;;4978561;28;20307;-75
2022/11/10 02:35:28;;;;;;;0.00;0.00;;;;;;;;;;4979507;28;20213;-75
2022/11/10 02:38:16;;;;;;;0.00;0.00;;;;;;;;;;4978987;28;20339;-76
2022/11/10 02:41:02;;;;;;;0.00;0.00;;;;;;;;;;4979866;28;20236;-75
2022/11/10 02:43:49;;;;;;;0.10;0.10;;;;;;;;;;4978136;28;20333;-75
2022/11/10 02:46:38;;;;;;;0.00;0.00;;;;;;;;;;4979427;28;20220;-75
2022/11/10 02:49:24;;;;;;;0.00;0.00;;;;;;;;;;4979186;28;20303;-75
2022/11/10 02:52:10;;;;;;;0.00;0.00;;;;;;;;;;4980432;28;20228;-76
2022/11/10 02:54:58;;;;;;;0.00;0.00;;;;;;;;;;4978316;28;20216;-75
2022/11/10 02:57:44;;;;;;;0.00;0.00;;;;;;;;;;4978263;28;20224;-76
2022/11/10 03:00:31;;;;;;;0.10;0.10;;;;;;;;;;4980205;28;20232;-76
2022/11/10 03:03:17;;;;;;;0.10;0.10;;;;;;;;;;4978814;28;20231;-75
2022/11/10 03:06:03;;;;;;;0.00;0.00;;;;;;;;;;4978185;28;20220;-76
2022/11/10 03:08:49;;;;;;;0.00;0.00;;;;;;;;;;4979538;28;20217;-76
2022/11/10 03:11:37;;;;;;;0.00;0.00;;;;;;;;;;4979037;28;20216;-76
2022/11/10 03:14:31;;;;;;;0.00;0.00;;;;;;;;;;5043682;27;20796;-71
2022/11/10 03:17:17;;;;;;;0.00;0.00;;;;;;;;;;5030566;28;20215;-72
2022/11/10 03:20:04;;;;;;;0.10;0.10;;;;;;;;;;5026521;28;20338;-72
2022/11/10 03:22:50;;;;;;;0.10;0.10;;;;;;;;;;5023871;28;20214;-73
2022/11/10 03:25:37;;;;;;;0.10;0.10;;;;;;;;;;5022146;28;20215;-72
2022/11/10 03:28:23;;;;;;;0.00;0.00;;;;;;;;;;5024113;28;20696;-72
2022/11/10 03:31:11;;;;;;;0.00;0.00;;;;;;;;;;5022683;28;20243;-72
2022/11/10 03:33:57;;;;;;;0.00;0.00;;;;;;;;;;5022457;28;20230;-72
2022/11/10 03:36:43;;;;;;;0.10;0.10;;;;;;;;;;5021955;28;20214;-71
2022/11/10 03:39:30;;;;;;;0.10;0.10;;;;;;;;;;5021775;28;20246;-72
2022/11/10 03:42:16;;;;;;;0.10;0.10;;;;;;;;;;5023593;28;20210;-73
2022/11/10 03:45:03;;;;;;;0.00;0.00;;;;;;;;;;5021281;28;20215;-71
2022/11/10 03:47:51;;;;;;;0.00;0.00;;;;;;;;;;5022898;28;20236;-72
2022/11/10 03:50:37;;;;;;;0.00;0.00;;;;;;;;;;5023270;28;20645;-72
2022/11/10 03:53:23;;;;;;;0.00;0.00;;;;;;;;;;5023539;28;20250;-72
2022/11/10 03:56:10;;;;;;;0.00;0.00;;;;;;;;;;5023008;28;20199;-72
2022/11/10 03:58:57;;;;;;;0.10;0.10;;;;;;;;;;5022122;28;20327;-72
2022/11/10 04:01:43;;;;;;;0.10;0.10;;;;;;;;;;5021924;28;20223;-72
2022/11/10 04:10:39;;;;;;;0.10;0.10;;;;;;;;;;5021853;28;20223;-72
2022/11/10 04:16:29;;;;;;;0.10;0.10;;;;;;;;;;5020807;28;20687;-71
2022/11/10 04:19:16;;;;;;;0.10;0.10;;;;;;;;;;5021797;28;20231;-73
2022/11/10 04:22:03;;;;;;;0.10;0.10;;;;;;;;;;5021544;28;20211;-72
2022/11/10 04:24:50;;;;;;;0.00;0.00;;;;;;;;;;5014518;28;20203;-73
2022/11/10 04:27:36;;;;;;;0.10;0.10;;;;;;;;;;5008036;28;20212;-72
2022/11/10 04:30:22;;;;;;;0.10;0.10;;;;;;;;;;5009036;28;20304;-71
2022/11/10 04:33:09;;;;;;;0.10;0.10;;;;;;;;;;5007959;28;20723;-72
2022/11/10 04:35:55;;;;;;;0.10;0.10;;;;;;;;;;5008363;28;20603;-71
2022/11/10 04:38:43;;;;;;;0.00;0.00;;;;;;;;;;5008355;28;20598;-71
2022/11/10 04:41:30;;;;;;;0.10;0.10;;;;;;;;;;5007837;28;20599;-71
2022/11/10 04:44:16;;;;;;;0.10;0.10;;;;;;;;;;5008695;28;20606;-72
2022/11/10 04:47:02;;;;;;;0.10;0.10;;;;;;;;;;5008294;28;20638;-71
2022/11/10 04:49:49;;;;;;;0.00;0.00;;;;;;;;;;5008250;28;20631;-74
2022/11/10 04:52:36;;;;;;;0.10;0.10;;;;;;;;;;5008346;28;20622;-71
2022/11/10 04:55:23;;;;;;;0.10;0.10;;;;;;;;;;5008947;28;20651;-71
2022/11/10 04:58:10;;;;;;;0.10;0.10;;;;;;;;;;5008404;28;21167;-72
2022/11/10 05:00:56;;;;;;;0.00;0.00;;;;;;;;;;5006674;28;20274;-71
2022/11/10 05:03:42;;;;;;;0.10;0.10;;;;;;;;;;5006599;28;20607;-71
2022/11/10 05:06:29;;;;;;;0.10;0.10;;;;;;;;;;5008426;28;20603;-71
2022/11/10 05:09:15;;;;;;;0.00;0.00;;;;;;;;;;5008977;28;20584;-71
2022/11/10 05:12:03;;;;;;;0.10;0.10;;;;;;;;;;5008105;28;20630;-72
2022/11/10 05:14:49;;;;;;;0.00;0.00;;;;;;;;;;5009022;28;20666;-71
2022/11/10 05:17:35;;;;;;;0.00;0.00;;;;;;;;;;5007495;28;20649;-71
2022/11/10 05:20:22;;;;;;;0.00;0.00;;;;;;;;;;5006038;28;20227;-71
2022/11/10 05:26:13;;;;;;;0.00;0.00;;;;;;;;;;5008159;28;20614;-70
2022/11/10 05:29:00;;;;;;;0.10;0.10;;;;;;;;;;5007174;28;20215;-72
2022/11/10 05:31:46;;;;;;;0.10;0.10;;;;;;;;;;5007044;28;20595;-70
2022/11/10 05:34:33;;;;;;;0.10;0.10;;;;;;;;;;5007832;28;20694;-71
2022/11/10 05:37:19;;;;;;;0.10;0.10;;;;;;;;;;5006359;28;20631;-72
2022/11/10 05:40:06;;;;;;;0.03;0.03;;;;;;;;;;5009709;28;20688;-72
2022/11/10 05:42:52;;;;;;;0.10;0.10;;;;;;;;;;5007703;28;20614;-71
2022/11/10 05:45:39;;;;;;;0.10;0.10;;;;;;;;;;5006479;28;20685;-72
2022/11/10 05:48:25;;;;;;;0.10;0.10;;;;;;;;;;5007378;28;20603;-72
2022/11/10 05:51:12;;;;;;;0.03;0.03;;;;;;;;;;5005988;28;20617;-71
2022/11/10 05:53:59;;;;;;;0.10;0.10;;;;;;;;;;5006559;28;20768;-72
2022/11/10 05:56:45;;;;;;;0.10;0.10;;;;;;;;;;5007837;28;20607;-73
2022/11/10 05:59:31;;;;;;;0.10;0.10;;;;;;;;;;5007479;28;20630;-73
2022/11/10 06:02:19;;;;;;;0.10;0.10;;;;;;;;;;5008164;28;20607;-71
2022/11/10 06:05:05;;;;;;;0.10;0.10;;;;;;;;;;5006315;28;20618;-71
2022/11/10 06:07:51;;;;;;;0.10;0.10;;;;;;;;;;5008562;28;20607;-72
2022/11/10 06:10:38;;;;;;;0.00;0.00;;;;;;;;;;5008067;28;20638;-71
2022/11/10 06:13:24;;;;;;;0.10;0.10;;;;;;;;;;5005855;28;20755;-72
2022/11/10 06:16:11;;;;;;;0.10;0.10;;;;;;;;;;5006624;28;20727;-71
2022/11/10 06:18:58;;;;;;;0.10;0.10;;;;;;;;;;5005002;28;20615;-71
2022/11/10 06:21:45;;;;;;;0.10;0.10;;;;;;;;;;5004456;28;20623;-71
2022/11/10 06:24:31;;;;;;;0.00;0.00;;;;;;;;;;5006757;28;20595;-71
2022/11/10 06:27:17;;;;;;;0.10;0.10;;;;;;;;;;5005279;28;20602;-71
2022/11/10 06:30:04;;;;;;;0.00;0.00;;;;;;;;;;5006394;28;20654;-71
2022/11/10 06:32:50;;;;;;;0.10;0.10;;;;;;;;;;5006109;28;20614;-72
2022/11/10 06:35:38;;;;;;;0.00;0.00;;;;;;;;;;5007046;28;21218;-73
2022/11/10 06:38:24;;;;;;;0.10;0.10;;;;;;;;;;5007364;28;20611;-71
2022/11/10 06:41:10;;;;;;;0.10;0.10;;;;;;;;;;5005332;28;20700;-71
2022/11/10 06:43:56;;;;;;;0.00;0.00;;;;;;;;;;5006947;28;20977;-71
2022/11/10 06:46:43;;;;;;;0.10;0.10;;;;;;;;;;5006894;28;20598;-73
2022/11/10 06:49:29;;;;;;;0.10;0.10;;;;;;;;;;5006171;28;21313;-72
2022/11/10 06:52:17;;;;;;;0.10;0.10;;;;;;;;;;5005597;28;20665;-71
2022/11/10 06:55:03;;;;;;;0.10;0.10;;;;;;;;;;5004732;28;20666;-71
2022/11/10 06:57:49;;;;;;;0.00;0.00;;;;;;;;;;5004616;28;20626;-72
2022/11/10 07:00:36;;;;;;;0.10;0.10;;;;;;;;;;5006305;28;20647;-71
2022/11/10 07:03:22;;;;;;;0.10;0.10;;;;;;;;;;5005230;28;20959;-71
2022/11/10 07:06:09;;;;;;;0.00;0.00;;;;;;;;;;5006020;28;21188;-72
2022/11/10 07:08:56;;;;;;;0.00;0.00;;;;;;;;;;5006774;28;20626;-71
2022/11/10 07:11:43;;;;;;;0.10;0.10;;;;;;;;;;5004819;28;20606;-72
2022/11/10 07:14:30;;;;;;;0.10;0.10;;;;;;;;;;5007343;28;20649;-69
2022/11/10 07:17:16;;;;;;;0.10;0.10;;;;;;;;;;5005567;28;20645;-69
2022/11/10 07:20:03;;;;;;;0.10;0.10;;;;;;;;;;5005661;28;20629;-70
2022/11/10 07:22:49;;;;;;;0.10;0.10;;;;;;;;;;5005276;28;21226;-69
2022/11/10 07:25:38;;;;;;;0.10;0.10;;;;;;;;;;5004552;28;20606;-71
2022/11/10 07:28:24;;;;;;;0.10;0.10;;;;;;;;;;5005120;28;20602;-70
2022/11/10 07:31:10;;;;;;;0.10;0.10;;;;;;;;;;5004197;28;20641;-71
2022/11/10 07:33:57;;;;;;;0.00;0.00;;;;;;;;;;5003115;28;20642;-70
2022/11/10 07:36:43;;;;;;;0.00;0.00;;;;;;;;;;5004285;28;20611;-70
2022/11/10 07:39:30;;;;;;;0.00;0.00;;;;;;;;;;5005524;28;20635;-70
2022/11/10 07:42:17;;;;;;;0.10;0.10;;;;;;;;;;5005683;28;21174;-71
2022/11/10 07:45:04;;;;;;;0.10;0.10;;;;;;;;;;5006023;28;20673;-69
2022/11/10 07:47:50;;;;;;;0.03;0.03;;;;;;;;;;5004391;28;20595;-73
2022/11/10 07:50:36;;;;;;;0.00;0.00;;;;;;;;;;5005909;28;20765;-71
2022/11/10 07:53:23;;;;;;;0.10;0.10;;;;;;;;;;5007970;28;20623;-71
2022/11/10 07:56:09;;;;;;;0.00;0.00;;;;;;;;;;5006161;28;21772;-72
2022/11/10 07:58:57;;;;;;;0.00;0.00;;;;;;;;;;5003201;28;20623;-72
2022/11/10 08:01:44;;;;;;;0.00;0.00;;;;;;;;;;5009860;28;20603;-71
2022/11/10 08:04:30;;;;;;;0.10;0.10;;;;;;;;;;5010071;28;20598;-72
2022/11/10 08:07:17;;;;;;;0.10;0.10;;;;;;;;;;5008263;28;20696;-73
2022/11/10 08:10:03;;;;;;;0.10;0.10;;;;;;;;;;5008592;28;20637;-73
2022/11/10 08:12:54;;;;;;;0.10;0.10;;;;;;;;;;5009405;28;20630;-73
2022/11/10 08:15:42;;;;;;;0.00;0.00;;;;;;;;;;5008542;28;20658;-74
2022/11/10 08:18:29;;;;;;;0.00;0.00;;;;;;;;;;5009422;28;20641;-71
2022/11/10 08:21:15;;;;;;;0.10;0.10;;;;;;;;;;5009661;28;20226;-74
2022/11/10 08:24:01;;;;;;;0.10;0.10;;;;;;;;;;5009773;28;20286;-73
2022/11/10 08:26:47;;;;;;;0.10;0.10;;;;;;;;;;5009069;28;20291;-73
2022/11/10 08:29:33;;;;;;;0.10;0.10;;;;;;;;;;5008717;28;20263;-72
2022/11/10 08:32:21;;;;;;;0.10;0.10;;;;;;;;;;5007660;28;20208;-71
2022/11/10 08:35:08;;;;;;;0.10;0.10;;;;;;;;;;5009023;28;20235;-72
2022/11/10 08:37:53;;;;;;;0.10;0.10;;;;;;;;;;5008702;28;20316;-72
2022/11/10 08:40:40;;;;;;;0.00;0.00;;;;;;;;;;5007602;28;20255;-73
2022/11/10 08:43:28;;;;;;;0.00;0.00;;;;;;;;;;5008144;28;20219;-71
2022/11/10 08:46:14;;;;;;;0.10;0.10;;;;;;;;;;5009207;28;20227;-72
2022/11/10 08:49:01;;;;;;;0.10;0.10;;;;;;;;;;5007586;28;20266;-72
2022/11/10 08:51:48;;;;;;;0.00;0.00;;;;;;;;;;5008929;28;20215;-73
2022/11/10 08:54:34;;;;;;;0.00;0.00;;;;;;;;;;5009353;28;20235;-73
2022/11/10 08:57:21;;;;;;;0.10;0.10;;;;;;;;;;5007807;28;20306;-72
2022/11/10 09:00:08;;;;;;;0.10;0.10;;;;;;;;;;5006498;28;20239;-73
2022/11/10 09:02:54;;;;;;;0.10;0.10;;;;;;;;;;5008852;28;20332;-71
2022/11/10 09:05:42;;;;;;;0.00;0.00;;;;;;;;;;5008890;28;20759;-70
2022/11/10 09:08:32;;;;;;;0.00;0.00;;;;;;;;;;5007002;28;20219;-72
2022/11/10 09:11:18;;;;;;;0.00;0.00;;;;;;;;;;5007558;28;20216;-72
2022/11/10 09:14:04;;;;;;;0.00;0.00;;;;;;;;;;5007824;28;20343;-71
2022/11/10 09:16:51;;;;;;;0.00;0.00;;;;;;;;;;5007576;28;20207;-71
2022/11/10 09:19:37;;;;;;;0.10;0.10;;;;;;;;;;5006849;28;20239;-72
2022/11/10 09:22:25;;;;;;;0.00;0.00;;;;;;;;;;5006505;28;20299;-71
2022/11/10 09:25:12;;;;;;;0.10;0.10;;;;;;;;;;5006812;28;20200;-73
2022/11/10 09:27:58;;;;;;;0.00;0.00;;;;;;;;;;5006564;28;20749;-73
2022/11/10 09:30:46;;;;;;;0.03;0.03;;;;;;;;;;5007541;28;20232;-73
2022/11/10 09:33:32;;;;;;;0.00;0.00;;;;;;;;;;5008222;28;20289;-73
2022/11/10 09:36:18;;;;;;;0.00;0.00;;;;;;;;;;5006788;28;20326;-72
2022/11/10 09:39:06;;;;;;;0.00;0.00;;;;;;;;;;5007117;28;20239;-71
2022/11/10 09:41:53;;;;;;;0.00;0.00;;;;;;;;;;5006192;28;20248;-71
2022/11/10 09:44:45;;;;;;;0.10;0.10;;;;;;;;;;5007750;28;20212;-73
2022/11/10 09:47:36;;;;;;;0.00;0.00;;;;;;;;;;5004631;28;20214;-72
2022/11/10 09:50:28;;;;;;;0.07;0.07;;;;;;;;;;5007639;28;20228;-72
2022/11/10 09:53:17;;;;;;;0.00;0.00;;;;;;;;;;5008737;28;20204;-70
2022/11/10 09:56:05;;;;;;;0.00;0.00;;;;;;;;;;5006202;28;20240;-73
2022/11/10 09:58:52;;;;;;;0.00;0.00;;;;;;;;;;5005413;28;20204;-73
2022/11/10 10:01:44;;;;;;;0.00;0.00;;;;;;;;;;5006951;28;20226;-72
2022/11/10 10:04:36;;;;;;;0.00;0.00;;;;;;;;;;5005886;28;20211;-73
2022/11/10 10:07:25;;;;;;;0.00;0.00;;;;;;;;;;5005150;28;20339;-73
2022/11/10 10:10:15;;;;;;;0.00;0.00;;;;;;;;;;5006186;28;20274;-71
2022/11/10 10:13:11;;;;;;;0.00;0.00;;;;;;;;;;5007073;28;20580;-73
2022/11/10 10:16:03;;;;;;;0.00;0.00;;;;;;;;;;5006414;28;20243;-73
2022/11/10 10:18:55;;;;;;;0.00;0.00;;;;;;;;;;5005745;28;20215;-71
2022/11/10 10:21:46;;;;;;;0.00;0.00;;;;;;;;;;5007265;28;20235;-73
2022/11/10 10:24:33;;;;;;;0.00;0.00;;;;;;;;;;5005753;28;20347;-71
2022/11/10 10:27:21;;;;;;;0.00;0.00;;;;;;;;;;5005708;28;20414;-73
2022/11/10 10:30:14;;;;;;;0.00;0.00;;;;;;;;;;5006265;28;20307;-74
2022/11/10 10:33:09;;;;;;;0.00;0.00;;;;;;;;;;5005945;28;20204;-72
2022/11/10 10:35:58;;;;;;;0.00;0.00;;;;;;;;;;5005966;28;20235;-72
2022/11/10 10:38:45;;;;;;;0.00;0.00;;;;;;;;;;5008083;28;20215;-72
2022/11/10 10:41:33;;;;;;;0.00;0.00;;;;;;;;;;5005522;28;20212;-72
2022/11/10 10:44:20;;;;;;;0.00;0.00;;;;;;;;;;5005282;28;20211;-73
2022/11/10 10:47:08;;;;;;;0.00;0.00;;;;;;;;;;5005889;28;20262;-72
2022/11/10 10:50:08;;;;;;;0.00;0.00;;;;;;;;;;5005070;28;20222;-72
2022/11/10 10:53:08;;;;;;;0.00;0.00;;;;;;;;;;5006587;28;20208;-73
2022/11/10 10:55:59;;;;;;;0.00;0.00;;;;;;;;;;5005917;28;20337;-73
2022/11/10 10:58:51;;;;;;;0.00;0.00;;;;;;;;;;5005191;28;20207;-73
2022/11/10 11:01:38;;;;;;;0.00;0.00;;;;;;;;;;5004802;28;20227;-69
2022/11/10 11:04:31;;;;;;;0.00;0.00;;;;;;;;;;5005140;28;20212;-72
2022/11/10 11:07:21;;;;;;;0.00;0.00;;;;;;;;;;5007560;28;20286;-72
2022/11/10 11:10:23;;;;;;;0.00;0.00;;;;;;;;;;5005325;28;20282;-71
2022/11/10 11:13:15;;;;;;;0.00;0.00;;;;;;;;;;5007709;28;20224;-72
2022/11/10 11:16:03;;;;;;;0.00;0.00;;;;;;;;;;5005381;28;20266;-72
2022/11/10 11:18:49;;;;;;;0.00;0.00;;;;;;;;;;5006134;28;20207;-72
2022/11/10 11:21:38;;;;;;;0.00;0.00;;;;;;;;;;5006360;28;20211;-74
2022/11/10 11:24:31;;;;;;;0.00;0.00;;;;;;;;;;5005709;28;20207;-73
2022/11/10 11:27:20;;;;;;;0.00;0.00;;;;;;;;;;5004186;28;20212;-71
2022/11/10 11:30:09;;;;;;;0.00;0.00;;;;;;;;;;5004811;28;20230;-74
2022/11/10 11:33:01;;;;;;;0.00;0.00;;;;;;;;;;5005875;28;20231;-73
2022/11/10 11:35:53;;;;;;;0.00;0.00;;;;;;;;;;5007112;28;20231;-74
2022/11/10 11:38:45;;;;;;;0.00;0.00;;;;;;;;;;5010322;28;20218;-74
2022/11/10 11:41:37;;;;;;;0.00;0.00;;;;;;;;;;5008702;28;20211;-73
2022/11/10 11:44:31;;;;;;;0.00;0.00;;;;;;;;;;5009874;28;20207;-72
2022/11/10 11:47:29;;;;;;;0.00;0.00;;;;;;;;;;5008270;28;20215;-73
2022/11/10 11:50:22;;;;;;;0.00;0.00;;;;;;;;;;5008062;28;20374;-73
2022/11/10 11:53:17;;;;;;;0.00;0.00;;;;;;;;;;5009602;28;20219;-73
2022/11/10 11:56:09;;;;;;;0.00;0.00;;;;;;;;;;5008158;28;20239;-73
2022/11/10 11:59:02;;;;;;;0.00;0.00;;;;;;;;;;5008256;28;20212;-73
2022/11/10 12:02:05;;;;;;;0.00;0.00;;;;;;;;;;5008681;28;20215;-74
2022/11/10 12:05:00;;;;;;;0.00;0.00;;;;;;;;;;5007661;28;20742;-73
2022/11/10 12:07:52;;;;;;;0.00;0.00;;;;;;;;;;5007573;28;20236;-74
2022/11/10 12:10:44;;;;;;;0.00;0.00;;;;;;;;;;5007794;28;20271;-74
2022/11/10 12:13:44;;;;;;;0.00;0.00;;;;;;;;;;5007495;28;20227;-72
2022/11/10 12:16:32;;;;;;;0.00;0.00;;;;;;;;;;5009075;28;20720;-73
2022/11/10 12:19:22;;;;;;;0.00;0.00;;;;;;;;;;5009086;28;20626;-72
2022/11/10 12:22:12;;;;;;;0.00;0.00;;;;;;;;;;5008297;28;20219;-71
2022/11/10 12:25:05;;;;;;;0.00;0.00;;;;;;;;;;5008119;28;20263;-72
2022/11/10 12:27:54;;;;;;;0.00;0.00;;;;;;;;;;5007936;28;20227;-71
2022/11/10 12:30:42;;;;;;;0.00;0.00;;;;;;;;;;5006626;28;20290;-71
2022/11/10 12:33:35;;;;;;;0.00;0.00;;;;;;;;;;5008310;28;20270;-72
2022/11/10 12:36:22;;;;;;;0.00;0.00;;;;;;;;;;5007800;28;20236;-72
2022/11/10 12:39:14;;;;;;;0.00;0.00;;;;;;;;;;5009119;28;20231;-71
2022/11/10 12:42:02;;;;;;;0.00;0.00;;;;;;;;;;5007750;28;20210;-74
2022/11/10 12:45:01;;;;;;;0.00;0.00;;;;;;;;;;5006491;28;20247;-71
2022/11/10 12:47:49;;;;;;;0.00;0.00;;;;;;;;;;5007543;28;20215;-72
2022/11/10 12:50:39;;;;;;;0.00;0.00;;;;;;;;;;5006661;28;20356;-71
2022/11/10 12:53:27;;;;;;;0.00;0.00;;;;;;;;;;5007295;28;20216;-72
2022/11/10 12:56:16;;;;;;;0.00;0.00;;;;;;;;;;5007539;28;20230;-71
2022/11/10 12:59:30;;;;;;;0.00;0.00;;;;;;;;;;5008544;28;20266;-71
2022/11/10 13:02:23;;;;;;;0.00;0.00;;;;;;;;;;4975598;28;20216;-74
2022/11/10 13:05:18;;;;;;;0.00;0.00;;;;;;;;;;5007213;28;20220;-72
2022/11/10 13:08:20;;;;;;;0.00;0.00;;;;;;;;;;5006894;28;20231;-73
2022/11/10 13:11:08;;;;;;;0.00;0.00;;;;;;;;;;5006848;28;20223;-71
2022/11/10 13:13:55;;;;;;;0.00;0.00;;;;;;;;;;5005911;28;20220;-72
2022/11/10 13:16:50;;;;;;;0.00;0.00;;;;;;;;;;5006684;28;20735;-71
2022/11/10 13:19:50;;;;;;;0.00;0.00;;;;;;;;;;5007850;28;20359;-71
2022/11/10 13:22:39;;;;;;;0.00;0.00;;;;;;;;;;5006930;28;20211;-73
2022/11/10 13:25:44;;;;;;;0.00;0.00;;;;;;;;;;5008492;28;20610;-71
2022/11/10 13:28:49;;;;;;;0.00;0.00;;;;;;;;;;5006411;28;20216;-74
2022/11/10 13:31:40;;;;;;;0.00;0.00;;;;;;;;;;5006367;28;20230;-74
2022/11/10 13:34:28;;;;;;;0.00;0.00;;;;;;;;;;5007281;28;20214;-72
2022/11/10 13:37:35;;;;;;;0.00;0.00;;;;;;;;;;5005901;28;20224;-73
2022/11/10 13:40:29;;;;;;;0.00;0.00;;;;;;;;;;5007156;28;20362;-71
2022/11/10 13:43:23;;;;;;;0.00;0.00;;;;;;;;;;5007508;28;20215;-73
2022/11/10 13:46:09;;;;;;;0.00;0.00;;;;;;;;;;5006536;28;20216;-71
2022/11/10 13:49:14;;;;;;;0.00;0.00;;;;;;;;;;5006674;28;20319;-73
2022/11/10 13:52:06;;;;;;;0.00;0.00;;;;;;;;;;5005912;28;20326;-74
2022/11/10 13:55:11;;;;;;;0.00;0.00;;;;;;;;;;5006556;28;20407;-73
2022/11/10 13:58:00;;;;;;;0.00;0.00;;;;;;;;;;5005540;28;20204;-74
2022/11/10 14:00:50;;;;;;;0.00;0.00;;;;;;;;;;5007517;28;20255;-74
2022/11/10 14:03:53;;;;;;;0.00;0.00;;;;;;;;;;5006538;28;20204;-74
2022/11/10 14:06:42;;;;;;;0.00;0.00;;;;;;;;;;5004808;28;20270;-71
2022/11/10 14:09:32;;;;;;;0.00;0.00;;;;;;;;;;5006043;28;20363;-74
2022/11/10 14:12:22;;;;;;;0.00;0.00;;;;;;;;;;5005844;28;20215;-72
2022/11/10 14:15:13;;;;;;;0.00;0.00;;;;;;;;;;5005597;28;20215;-72
2022/11/10 14:18:01;;;;;;;0.00;0.00;;;;;;;;;;5005018;28;20712;-74
2022/11/10 14:20:48;;;;;;;0.00;0.00;;;;;;;;;;5005497;28;20798;-70
2022/11/10 14:23:37;;;;;;;0.00;0.00;;;;;;;;;;5006063;28;20223;-73
2022/11/10 14:26:26;;;;;;;0.00;0.00;;;;;;;;;;5005720;28;20251;-72
2022/11/10 14:29:27;;;;;;;0.00;0.00;;;;;;;;;;5004778;28;20342;-72
2022/11/10 14:32:17;;;;;;;0.00;0.00;;;;;;;;;;5005741;28;20274;-72
2022/11/10 14:35:03;;;;;;;0.00;0.00;;;;;;;;;;5005661;28;20319;-70
2022/11/10 14:37:49;;;;;;;0.00;0.00;;;;;;;;;;5006475;28;20199;-71
2022/11/10 14:40:41;;;;;;;0.00;0.00;;;;;;;;;;5006852;28;20235;-70
2022/11/10 14:43:29;;;;;;;0.00;0.00;;;;;;;;;;5006813;28;20334;-73
2022/11/10 14:46:15;;;;;;;0.00;0.00;;;;;;;;;;5005934;28;20207;-71
2022/11/10 14:49:04;;;;;;;0.00;0.00;;;;;;;;;;5005236;28;20208;-71
2022/11/10 14:51:51;;;;;;;0.00;0.00;;;;;;;;;;5005641;28;20231;-71
2022/11/10 14:54:37;;;;;;;0.00;0.00;;;;;;;;;;5004947;28;20342;-71
2022/11/10 14:57:24;;;;;;;0.00;0.00;;;;;;;;;;5004548;28;20314;-73
2022/11/10 15:00:14;;;;;;;0.00;0.00;;;;;;;;;;5006936;28;20308;-72
2022/11/10 15:03:00;;;;;;;0.00;0.00;;;;;;;;;;5008974;28;20215;-72
2022/11/10 15:05:48;;;;;;;0.00;0.00;;;;;;;;;;5009195;28;20212;-71
2022/11/10 15:08:38;;;;;;;0.00;0.00;;;;;;;;;;5008428;28;20338;-71
2022/11/10 15:11:34;;;;;;;0.00;0.00;;;;;;;;;;5008546;28;20208;-73
2022/11/10 15:14:47;;;;;;;0.00;0.00;;;;;;;;;;5007926;28;20220;-72
2022/11/10 15:17:46;;;;;;;0.00;0.00;;;;;;;;;;4980398;28;20347;-71
2022/11/10 15:20:37;;;;;;;0.00;0.00;;;;;;;;;;5008831;28;20240;-73
2022/11/10 15:23:27;;;;;;;0.00;0.00;;;;;;;;;;5009498;28;20739;-71
2022/11/10 15:26:19;;;;;;;0.00;0.00;;;;;;;;;;5007903;28;20216;-72
2022/11/10 15:29:05;;;;;;;0.00;0.00;;;;;;;;;;5008796;28;20243;-73
2022/11/10 15:31:52;;;;;;;0.00;0.00;;;;;;;;;;5009593;28;20215;-72
2022/11/10 15:34:44;;;;;;;0.00;0.00;;;;;;;;;;5007866;28;20223;-71
2022/11/10 15:37:33;;;;;;;0.00;0.00;;;;;;;;;;5009233;28;20352;-74
2022/11/10 15:40:37;;;;;;;0.00;0.00;;;;;;;;;;5008882;28;20356;-70
2022/11/10 15:43:27;;;;;;;0.00;0.00;;;;;;;;;;5007960;28;20210;-70
2022/11/10 15:46:18;;;;;;;0.00;0.00;;;;;;;;;;5007447;28;20203;-70
2022/11/10 15:49:09;;;;;;;0.00;0.00;;;;;;;;;;5009616;28;20216;-74
2022/11/10 15:51:57;;;;;;;0.00;0.00;;;;;;;;;;5008868;28;20250;-74
2022/11/10 15:54:43;;;;;;;0.00;0.00;;;;;;;;;;5005217;28;20255;-71
2022/11/10 15:57:31;;;;;;;0.00;0.00;;;;;;;;;;5003811;28;20235;-70
2022/11/10 16:00:17;;;;;;;0.00;0.00;;;;;;;;;;5004828;28;20326;-71
2022/11/10 16:03:04;;;;;;;0.00;0.00;;;;;;;;;;5003873;28;20220;-71
2022/11/10 16:05:50;;;;;;;0.00;0.00;;;;;;;;;;5004147;28;20224;-71
2022/11/10 16:08:37;;;;;;;0.00;0.00;;;;;;;;;;5004625;28;20215;-73
2022/11/10 16:11:24;;;;;;;0.00;0.00;;;;;;;;;;5005230;28;20262;-73
2022/11/10 16:14:14;;;;;;;0.00;0.00;;;;;;;;;;5004734;28;20231;-73
2022/11/10 16:17:00;;;;;;;0.00;0.00;;;;;;;;;;5003618;28;20232;-73
2022/11/10 16:19:47;;;;;;;0.00;0.00;;;;;;;;;;5004272;28;20231;-71
2022/11/10 16:22:33;;;;;;;0.00;0.00;;;;;;;;;;5008154;28;20215;-72
2022/11/10 16:25:19;;;;;;;0.00;0.00;;;;;;;;;;5008623;28;20227;-74
2022/11/10 16:28:06;;;;;;;0.00;0.00;;;;;;;;;;5008113;28;20224;-73
2022/11/10 16:30:54;;;;;;;0.00;0.00;;;;;;;;;;5008851;28;20234;-70
2022/11/10 16:33:41;;;;;;;0.00;0.00;;;;;;;;;;5007084;28;20818;-73
2022/11/10 16:36:31;;;;;;;0.00;0.00;;;;;;;;;;5009385;28;20224;-72
2022/11/10 16:39:17;;;;;;;0.00;0.00;;;;;;;;;;5006951;28;20295;-72
2022/11/10 16:42:03;;;;;;;0.00;0.00;;;;;;;;;;5007226;28;20319;-72
2022/11/10 16:44:50;;;;;;;0.00;0.00;;;;;;;;;;5007944;28;20204;-72
2022/11/10 16:47:37;;;;;;;0.00;0.00;;;;;;;;;;5007171;28;20212;-72
2022/11/10 16:50:32;;;;;;;0.00;0.00;;;;;;;;;;5005822;28;20798;-72
2022/11/10 16:53:20;;;;;;;0.00;0.00;;;;;;;;;;5007552;28;20703;-73
2022/11/10 16:56:07;;;;;;;0.00;0.00;;;;;;;;;;5007271;28;20283;-72
2022/11/10 16:58:53;;;;;;;0.00;0.00;;;;;;;;;;5006137;28;20259;-73
2022/11/10 17:01:40;;;;;;;0.00;0.00;;;;;;;;;;5005863;28;20218;-73
2022/11/10 17:04:28;;;;;;;0.00;0.00;;;;;;;;;;5007669;28;20211;-72
2022/11/10 17:07:14;;;;;;;0.00;0.00;;;;;;;;;;5007184;28;20330;-72